createdAt,value
2023-05-22T00:03:03.606Z,101294.91
2023-05-22T00:06:27.917Z,101293.48
2023-05-22T00:09:59.999Z,101292.77
2023-05-22T00:13:24.940Z,101286.48
2023-05-22T00:17:14.070Z,101286.66
2023-05-22T00:20:53.064Z,101289.57
2023-05-22T00:24:26.468Z,101289.77
2023-05-22T00:27:53.207Z,101292.06
2023-05-22T00:31:42.392Z,101291.39
2023-05-22T00:35:31.379Z,101291.73
2023-05-22T00:39:29.337Z,101287.03
2023-05-22T00:43:04.483Z,101285.09
2023-05-22T00:46:30.909Z,101284.23
2023-05-22T00:50:19.502Z,101284.89
2023-05-22T00:53:59.669Z,101282.14
2023-05-22T00:57:48.250Z,101280.86
2023-05-22T01:01:37.409Z,101280.06
2023-05-22T01:05:21.958Z,101274.80
2023-05-22T01:09:04.357Z,101277.45
2023-05-22T01:13:05.435Z,101278.89
2023-05-22T01:16:51.603Z,101277.20
2023-05-22T01:20:43.223Z,101276.51
2023-05-22T01:24:37.817Z,101279.43
2023-05-22T01:28:35.924Z,101280.41
2023-05-22T01:32:24.854Z,101278.20
2023-05-22T01:36:07.535Z,101285.63
2023-05-22T01:39:56.460Z,101287.05
2023-05-22T01:43:45.707Z,101287.08
2023-05-22T01:47:24.629Z,101278.88
2023-05-22T01:50:51.023Z,101279.77
2023-05-22T01:54:35.283Z,101278.05
2023-05-22T01:58:03.366Z,101279.24
2023-05-22T02:01:52.276Z,101278.34
2023-05-22T02:05:28.768Z,101276.63
2023-05-22T02:09:02.110Z,101280.77
2023-05-22T02:12:51.407Z,101279.98
2023-05-22T02:16:40.611Z,101279.79
2023-05-22T02:20:13.235Z,101278.95
2023-05-22T02:23:47.705Z,101272.20
2023-05-22T02:27:29.855Z,101267.81
2023-05-22T02:31:18.943Z,101262.59
2023-05-22T02:35:07.515Z,101260.86
2023-05-22T02:38:56.525Z,101263.02
2023-05-22T02:42:31.019Z,101256.46
2023-05-22T02:46:20.164Z,101255.58
2023-05-22T02:50:08.929Z,101255.52
2023-05-22T02:53:47.494Z,101255.46
2023-05-22T02:57:36.407Z,101249.38
2023-05-22T03:01:17.908Z,101256.98
2023-05-22T03:04:59.609Z,101251.71
2023-05-22T03:08:46.060Z,101250.29
2023-05-22T03:12:35.009Z,101246.64
2023-05-22T03:16:15.393Z,101244.85
2023-05-22T03:20:09.250Z,101242.98
2023-05-22T03:23:52.113Z,101239.63
2023-05-22T03:27:28.593Z,101233.62
2023-05-22T03:31:08.910Z,101232.83
2023-05-22T03:34:47.289Z,101237.25
2023-05-22T03:38:36.406Z,101238.55
2023-05-22T03:42:25.901Z,101241.58
2023-05-22T03:46:07.932Z,101241.08
2023-05-22T03:49:55.850Z,101245.89
2023-05-22T03:53:44.442Z,101248.28
2023-05-22T03:57:26.667Z,101253.33
2023-05-22T04:01:04.975Z,101245.92
2023-05-22T04:04:24.680Z,101247.54
2023-05-22T04:08:06.737Z,101244.38
2023-05-22T04:11:44.128Z,101235.33
2023-05-22T04:15:33.135Z,101237.45
2023-05-22T04:19:04.731Z,101237.41
2023-05-22T04:22:54.085Z,101236.78
2023-05-22T04:26:33.167Z,101238.10
2023-05-22T04:30:21.892Z,101239.23
2023-05-22T04:33:59.625Z,101237.09
2023-05-22T04:37:34.866Z,101242.20
2023-05-22T04:40:58.347Z,101244.36
2023-05-22T04:44:32.928Z,101239.54
2023-05-22T04:48:21.992Z,101243.58
2023-05-22T04:52:10.942Z,101244.38
2023-05-22T04:56:00.397Z,101242.96
2023-05-22T04:59:49.631Z,101233.58
2023-05-22T05:03:28.720Z,101231.09
2023-05-22T05:06:39.674Z,101230.30
2023-05-22T05:10:09.898Z,101235.55
2023-05-22T05:13:57.741Z,101237.85
2023-05-22T05:17:47.061Z,101237.61
2023-05-22T05:21:28.890Z,101241.38
2023-05-22T05:24:41.045Z,101240.15
2023-05-22T05:28:14.827Z,101243.38
2023-05-22T05:31:49.353Z,101245.73
2023-05-22T05:35:25.812Z,101245.05
2023-05-22T05:39:14.719Z,101245.30
2023-05-22T05:42:46.275Z,101248.27
2023-05-22T05:46:30.605Z,101249.30
2023-05-22T05:50:01.446Z,101245.90
2023-05-22T05:53:50.935Z,101246.04
2023-05-22T05:56:54.141Z,101247.15
2023-05-22T06:00:18.234Z,101246.33
2023-05-22T06:04:07.603Z,101244.35
2023-05-22T06:07:49.918Z,101244.36
2023-05-22T06:11:38.714Z,101244.85
2023-05-22T06:14:59.220Z,101236.10
2023-05-22T06:18:21.387Z,101231.84
2023-05-22T06:22:10.683Z,101230.98
2023-05-22T06:26:00.014Z,101233.52
2023-05-22T06:29:31.885Z,101236.19
2023-05-22T06:33:21.276Z,101232.60
2023-05-22T06:37:00.779Z,101233.77
2023-05-22T06:40:30.286Z,101232.37
2023-05-22T06:44:12.942Z,101228.66
2023-05-22T06:47:53.801Z,101232.21
2023-05-22T06:51:29.792Z,101233.09
2023-05-22T06:54:34.063Z,101231.70
2023-05-22T06:58:10.281Z,101234.21
2023-05-22T07:01:59.773Z,101226.98
2023-05-22T07:05:49.215Z,101234.50
2023-05-22T07:09:35.048Z,101222.98
2023-05-22T07:13:24.120Z,101221.63
2023-05-22T07:17:01.598Z,101217.48
2023-05-22T07:20:43.711Z,101219.79
2023-05-22T07:24:35.999Z,101221.82
2023-05-22T07:28:05.431Z,101224.79
2023-05-22T07:31:51.819Z,101227.21
2023-05-22T07:35:32.734Z,101227.02
2023-05-22T07:39:00.175Z,101228.97
2023-05-22T07:42:49.454Z,101226.79
2023-05-22T07:46:38.807Z,101227.84
2023-05-22T07:50:32.561Z,101220.75
2023-05-22T07:54:21.923Z,101218.74
2023-05-22T07:58:11.219Z,101222.36
2023-05-22T08:01:50.692Z,101221.14
2023-05-22T08:05:40.000Z,101219.86
2023-05-22T08:09:29.331Z,101218.36
2023-05-22T08:13:13.384Z,101220.23
2023-05-22T08:17:02.481Z,101222.84
2023-05-22T08:20:43.934Z,101216.45
2023-05-22T08:24:15.595Z,101217.77
2023-05-22T08:27:40.634Z,101219.11
2023-05-22T08:31:30.322Z,101220.05
2023-05-22T08:35:19.419Z,101215.52
2023-05-22T08:39:09.132Z,101208.17
2023-05-22T08:42:44.747Z,101215.74
2023-05-22T08:46:26.525Z,101209.33
2023-05-22T08:50:16.376Z,101204.05
2023-05-22T08:53:52.338Z,101205.18
2023-05-22T08:57:41.360Z,101197.29
2023-05-22T09:01:23.471Z,101196.79
2023-05-22T09:05:13.475Z,101193.33
2023-05-22T09:09:02.448Z,101190.39
2023-05-22T09:12:44.641Z,101182.88
2023-05-22T09:16:33.803Z,101178.70
2023-05-22T09:20:15.918Z,101182.58
2023-05-22T09:24:14.032Z,101173.21
2023-05-22T09:28:03.249Z,101168.92
2023-05-22T09:31:45.119Z,101165.84
2023-05-22T09:35:37.276Z,101167.70
2023-05-22T09:39:28.337Z,101159.95
2023-05-22T09:43:17.200Z,101164.23
2023-05-22T09:47:06.482Z,101157.26
2023-05-22T09:50:44.179Z,101154.61
2023-05-22T09:54:25.044Z,101155.48
2023-05-22T09:58:13.979Z,101148.23
2023-05-22T10:02:03.362Z,101145.36
2023-05-22T10:05:52.660Z,101150.30
2023-05-22T10:09:40.351Z,101143.07
2023-05-22T10:13:15.530Z,101135.44
2023-05-22T10:17:05.734Z,101138.95
2023-05-22T10:20:54.685Z,101130.59
2023-05-22T10:24:44.998Z,101132.10
2023-05-22T10:28:14.664Z,101133.92
2023-05-22T10:31:42.134Z,101126.84
2023-05-22T10:35:59.702Z,101124.80
2023-05-22T10:39:41.096Z,101110.48
2023-05-22T10:43:30.467Z,101109.23
2023-05-22T10:47:16.012Z,101100.71
2023-05-22T10:51:11.204Z,101093.00
2023-05-22T10:55:00.298Z,101090.45
2023-05-22T10:58:58.455Z,101096.23
2023-05-22T11:02:47.488Z,101095.59
2023-05-22T11:06:12.295Z,101090.17
2023-05-22T11:10:07.085Z,101078.42
2023-05-22T11:13:53.869Z,101085.44
2023-05-22T11:17:26.404Z,101080.67
2023-05-22T11:21:21.425Z,101088.41
2023-05-22T11:25:13.269Z,101075.87
2023-05-22T11:28:42.623Z,101076.23
2023-05-22T11:32:31.852Z,101077.34
2023-05-22T11:36:13.119Z,101068.73
2023-05-22T11:40:02.143Z,101070.08
2023-05-22T11:43:51.514Z,101072.45
2023-05-22T11:47:40.174Z,101065.23
2023-05-22T11:51:14.788Z,101060.75
2023-05-22T11:55:04.255Z,101062.13
2023-05-22T11:58:36.422Z,101058.52
2023-05-22T12:02:25.737Z,101049.67
2023-05-22T12:06:17.944Z,101038.83
2023-05-22T12:10:10.067Z,101044.04
2023-05-22T12:14:04.772Z,101038.91
2023-05-22T12:17:55.785Z,101041.90
2023-05-22T12:21:33.015Z,101030.02
2023-05-22T12:25:17.234Z,101025.61
2023-05-22T12:29:06.682Z,101034.33
2023-05-22T12:32:46.492Z,101030.00
2023-05-22T12:36:35.753Z,101019.86
2023-05-22T12:40:24.638Z,101012.95
2023-05-22T12:44:13.886Z,101008.66
2023-05-22T12:47:18.217Z,101004.88
2023-05-22T12:51:07.862Z,101006.39
2023-05-22T12:54:57.303Z,100992.02
2023-05-22T12:59:04.626Z,100996.80
2023-05-22T13:03:33.826Z,100984.67
2023-05-22T13:07:44.425Z,100984.85
2023-05-22T13:11:28.300Z,100989.64
2023-05-22T13:15:18.176Z,100982.23
2023-05-22T13:18:59.936Z,100980.88
2023-05-22T13:22:57.539Z,100981.17
2023-05-22T13:26:46.979Z,100973.14
2023-05-22T13:30:35.049Z,100971.92
2023-05-22T13:34:24.167Z,100974.34
2023-05-22T13:38:12.611Z,100973.23
2023-05-22T13:42:02.045Z,100963.31
2023-05-22T13:45:46.138Z,100963.88
2023-05-22T13:49:34.544Z,100965.23
2023-05-22T13:53:22.471Z,100960.66
2023-05-22T13:57:11.874Z,100952.84
2023-05-22T14:01:01.322Z,100946.02
2023-05-22T14:04:36.291Z,100946.53
2023-05-22T14:08:26.194Z,100947.31
2023-05-22T14:12:15.283Z,100942.68
2023-05-22T14:16:04.733Z,100944.48
2023-05-22T14:19:53.959Z,100946.84
2023-05-22T14:23:43.124Z,100945.80
2023-05-22T14:27:25.081Z,100932.92
2023-05-22T14:31:14.475Z,100932.25
2023-05-22T14:34:56.496Z,100929.15
2023-05-22T14:38:37.580Z,100920.56
2023-05-22T14:42:27.161Z,100921.98
2023-05-22T14:46:13.430Z,100922.78
2023-05-22T14:50:18.063Z,100915.88
2023-05-22T14:54:08.824Z,100914.10
2023-05-22T14:57:57.621Z,100913.80
2023-05-22T15:01:46.930Z,100918.52
2023-05-22T15:05:36.376Z,100911.80
2023-05-22T15:09:25.988Z,100897.56
2023-05-22T15:13:15.827Z,100902.02
2023-05-22T15:17:05.498Z,100897.74
2023-05-22T15:20:53.859Z,100892.37
2023-05-22T15:24:07.811Z,100892.19
2023-05-22T15:27:57.019Z,100887.63
2023-05-22T15:31:46.691Z,100887.44
2023-05-22T15:35:35.414Z,100880.66
2023-05-22T15:39:17.425Z,100872.31
2023-05-22T15:43:05.780Z,100879.45
2023-05-22T15:46:55.832Z,100869.55
2023-05-22T15:50:45.786Z,100857.86
2023-05-22T15:54:35.772Z,100855.23
2023-05-22T15:58:24.974Z,100850.04
2023-05-22T16:02:13.956Z,100848.86
2023-05-22T16:06:03.822Z,100854.14
2023-05-22T16:09:53.762Z,100849.61
2023-05-22T16:13:50.704Z,100848.78
2023-05-22T16:17:43.465Z,100846.13
2023-05-22T16:21:22.993Z,100846.73
2023-05-22T16:24:59.629Z,100847.03
2023-05-22T16:28:33.875Z,100844.91
2023-05-22T16:32:24.013Z,100842.58
2023-05-22T16:36:09.138Z,100838.48
2023-05-22T16:39:59.026Z,100836.90
2023-05-22T16:43:48.969Z,100836.61
2023-05-22T16:47:38.578Z,100836.27
2023-05-22T16:51:28.777Z,100834.29
2023-05-22T16:55:08.760Z,100835.58
2023-05-22T16:58:47.375Z,100835.47
2023-05-22T17:02:28.307Z,100830.68
2023-05-22T17:06:20.936Z,100828.80
2023-05-22T17:10:12.917Z,100829.84
2023-05-22T17:14:02.266Z,100830.64
2023-05-22T17:17:51.563Z,100829.79
2023-05-22T17:21:40.984Z,100828.84
2023-05-22T17:25:30.736Z,100834.23
2023-05-22T17:29:20.475Z,100834.47
2023-05-22T17:33:10.222Z,100835.45
2023-05-22T17:36:59.590Z,100828.88
2023-05-22T17:40:50.213Z,100826.73
2023-05-22T17:44:39.704Z,100825.00
2023-05-22T17:48:29.022Z,100823.61
2023-05-22T17:51:54.732Z,100829.80
2023-05-22T17:55:44.584Z,100828.93
2023-05-22T17:59:34.599Z,100828.50
2023-05-22T18:03:17.013Z,100826.63
2023-05-22T18:07:06.289Z,100830.66
2023-05-22T18:10:55.492Z,100835.10
2023-05-22T18:14:44.597Z,100833.97
2023-05-22T18:18:34.012Z,100833.84
2023-05-22T18:22:19.903Z,100835.08
2023-05-22T18:26:07.562Z,100838.75
2023-05-22T18:29:59.217Z,100832.95
2023-05-22T18:33:48.722Z,100834.30
2023-05-22T18:37:39.522Z,100831.08
2023-05-22T18:41:28.053Z,100826.74
2023-05-22T18:45:20.032Z,100831.52
2023-05-22T18:48:53.034Z,100835.88
2023-05-22T18:52:42.262Z,100841.39
2023-05-22T18:56:24.392Z,100839.39
2023-05-22T18:59:58.160Z,100838.13
2023-05-22T19:03:47.369Z,100837.39
2023-05-22T19:07:31.087Z,100837.83
2023-05-22T19:11:20.166Z,100845.44
2023-05-22T19:15:06.375Z,100842.16
2023-05-22T19:18:55.150Z,100846.25
2023-05-22T19:22:37.015Z,100843.98
2023-05-22T19:25:59.949Z,100845.13
2023-05-22T19:29:25.314Z,100843.17
2023-05-22T19:33:15.273Z,100841.36
2023-05-22T19:36:59.545Z,100840.58
2023-05-22T19:40:48.828Z,100843.73
2023-05-22T19:44:37.963Z,100848.67
2023-05-22T19:48:22.954Z,100843.74
2023-05-22T19:52:11.873Z,100847.95
2023-05-22T19:56:01.346Z,100846.44
2023-05-22T19:59:43.928Z,100842.21
2023-05-22T20:03:25.534Z,100846.34
2023-05-22T20:07:15.358Z,100844.05
2023-05-22T20:10:51.030Z,100841.15
2023-05-22T20:14:40.687Z,100837.11
2023-05-22T20:18:16.062Z,100835.23
2023-05-22T20:22:05.551Z,100843.38
2023-05-22T20:25:47.444Z,100839.55
2023-05-22T20:29:28.168Z,100838.05
2023-05-22T20:32:53.529Z,100844.02
2023-05-22T20:36:25.750Z,100843.81
2023-05-22T20:40:04.056Z,100841.86
2023-05-22T20:43:46.980Z,100842.79
2023-05-22T20:47:31.547Z,100843.27
2023-05-22T20:51:21.534Z,100843.11
2023-05-22T20:55:11.400Z,100844.67
2023-05-22T20:58:39.190Z,100842.09
2023-05-22T21:02:06.899Z,100842.09
2023-05-22T21:05:47.976Z,100837.52
2023-05-22T21:09:19.454Z,100842.84
2023-05-22T21:13:08.576Z,100841.80
2023-05-22T21:16:57.526Z,100842.78
2023-05-22T21:20:45.466Z,100842.18
2023-05-22T21:24:28.017Z,100842.98
2023-05-22T21:28:16.860Z,100837.89
2023-05-22T21:32:05.865Z,100840.04
2023-05-22T21:35:56.797Z,100840.83
2023-05-22T21:39:45.998Z,100830.31
2023-05-22T21:43:34.429Z,100829.52
2023-05-22T21:47:23.372Z,100835.39
2023-05-22T21:51:12.474Z,100834.17
2023-05-22T21:54:57.973Z,100832.19
2023-05-22T21:58:46.953Z,100829.39
2023-05-22T22:02:34.878Z,100831.52
2023-05-22T22:06:24.294Z,100826.10
2023-05-22T22:10:13.081Z,100828.41
2023-05-22T22:14:01.591Z,100827.31
2023-05-22T22:17:50.160Z,100826.77
2023-05-22T22:21:39.215Z,100817.95
2023-05-22T22:25:23.227Z,100813.48
2023-05-22T22:29:12.225Z,100809.28
2023-05-22T22:33:01.554Z,100808.88
2023-05-22T22:36:43.017Z,100806.66
2023-05-22T22:40:32.187Z,100814.46
2023-05-22T22:44:19.822Z,100819.96
2023-05-22T22:48:08.771Z,100817.61
2023-05-22T22:51:50.446Z,100815.23
2023-05-22T22:55:32.194Z,100812.44
2023-05-22T22:59:15.322Z,100812.95
2023-05-22T23:03:45.477Z,100809.52
2023-05-22T23:07:32.864Z,100806.77
2023-05-22T23:11:44.801Z,100799.13
2023-05-22T23:15:34.018Z,100802.04
2023-05-22T23:19:41.891Z,100801.80
2023-05-22T23:23:30.903Z,100796.04
2023-05-22T23:27:58.161Z,100797.92
2023-05-22T23:31:54.254Z,100792.18
2023-05-22T23:35:45.304Z,100784.46
2023-05-22T23:39:26.141Z,100786.14
2023-05-22T23:43:14.951Z,100782.09
2023-05-22T23:47:07.107Z,100779.15
2023-05-22T23:50:43.542Z,100774.56
2023-05-22T23:54:21.588Z,100775.23
2023-05-22T23:57:52.547Z,100776.11
